Time;durP1;ratioP1;P1;durP2;ratioP2;P2;SDS_P1;SDS_P2;PMS_P1;PMS_P2;Temp;Humidity;BMP_temperature;BMP_pressure;BME280_temperature;BME280_humidity;BME280_pressure;Samples;Min_cycle;Max_cycle;Signal;HPM_P1;HPM_P2
2022/04/09 00:02:08;;;;;;;0.90;0.80;;;0.80;99.90;;;0.75;81.20;96049.28;4929266;29;20356;-42
2022/04/09 00:04:36;;;;;;;1.00;0.70;;;0.70;99.90;;;0.58;81.95;96058.66;4930085;29;20094;-42
2022/04/09 00:07:04;;;;;;;0.57;0.57;;;0.70;99.90;;;0.78;80.90;96060.31;4929953;29;20060;-42
2022/04/09 00:09:32;;;;;;;1.00;0.90;;;0.80;99.90;;;0.86;80.95;96071.91;4928127;29;20048;-42
2022/04/09 00:11:59;;;;;;;0.70;0.70;;;0.80;99.90;;;0.85;80.44;96086.78;4930136;29;20060;-42
2022/04/09 00:14:27;;;;;;;1.30;0.70;;;0.80;99.90;;;0.94;80.82;96100.84;4931114;29;20048;-44
2022/04/09 00:16:55;;;;;;;0.60;0.60;;;0.90;99.90;;;1.01;80.49;96111.59;4929957;29;20052;-42
2022/04/09 00:19:23;;;;;;;0.77;0.63;;;0.90;99.90;;;0.89;79.76;96145.81;4930019;29;20059;-42
2022/04/09 00:21:51;;;;;;;1.00;0.60;;;0.90;99.90;;;1.16;79.46;96158.22;4930755;29;20060;-42
2022/04/09 00:24:19;;;;;;;1.33;0.60;;;1.00;99.90;;;1.20;79.31;96184.16;4929970;29;20066;-43
2022/04/09 00:26:47;;;;;;;0.70;0.57;;;1.00;99.90;;;1.12;79.24;96190.91;4930981;29;20415;-42
2022/04/09 00:29:15;;;;;;;0.60;0.47;;;0.90;99.90;;;1.18;79.18;96198.22;4929411;29;20051;-42
2022/04/09 00:31:43;;;;;;;0.33;0.33;;;1.00;99.90;;;1.12;78.80;96209.25;4929402;29;20249;-43
2022/04/09 00:34:12;;;;;;;0.57;0.50;;;1.00;99.90;;;1.32;79.12;96211.91;4927512;29;20228;-42
2022/04/09 00:36:40;;;;;;;0.40;0.40;;;1.10;99.90;;;1.25;78.92;96219.47;4930617;29;20063;-42
2022/04/09 00:39:08;;;;;;;1.00;0.67;;;1.10;99.90;;;1.43;78.56;96216.16;4929455;29;20052;-43
2022/04/09 00:41:47;;;;;;;0.57;0.50;;;1.20;99.90;;;1.21;79.50;96225.97;4928197;29;20055;-42
2022/04/09 00:44:21;;;;;;;0.93;0.70;;;1.00;99.90;;;1.34;78.86;96225.69;4929308;29;20063;-42
2022/04/09 00:46:49;;;;;;;1.23;0.80;;;1.10;99.90;;;1.31;78.79;96239.88;4944823;29;20063;-42
2022/04/09 00:49:17;;;;;;;0.77;0.70;;;1.00;99.90;;;1.34;78.99;96238.81;4927777;29;20375;-42
2022/04/09 00:51:47;;;;;;;0.90;0.60;;;1.10;99.90;;;1.41;78.83;96247.75;4911736;29;20064;-42
2022/04/09 00:54:19;;;;;;;0.93;0.80;;;1.10;99.90;;;1.49;78.60;96253.16;4929023;29;20364;-42
2022/04/09 00:56:51;;;;;;;1.10;0.70;;;1.30;99.90;;;1.56;78.33;96279.66;4926934;29;20058;-42
2022/04/09 00:59:23;;;;;;;1.30;0.80;;;1.30;99.90;;;1.53;78.62;96279.91;4927820;29;20055;-42
2022/04/09 01:01:54;;;;;;;3.37;1.13;;;1.30;99.90;;;1.40;78.35;96287.22;4927466;29;20373;-42
2022/04/09 01:04:24;;;;;;;1.20;0.90;;;1.10;99.90;;;1.54;78.84;96305.19;4927868;29;20058;-42
2022/04/09 01:06:52;;;;;;;1.47;1.10;;;1.30;99.90;;;1.51;78.77;96311.56;4928176;29;20051;-43
2022/04/09 01:09:20;;;;;;;1.20;0.87;;;1.30;99.90;;;1.73;77.86;96315.69;4910353;29;20264;-42
2022/04/09 01:11:49;;;;;;;1.63;1.10;;;1.50;99.90;;;1.77;77.82;96324.94;4911283;29;20055;-42
2022/04/09 01:14:18;;;;;;;1.63;1.00;;;1.50;99.90;;;1.93;77.58;96336.66;4926414;29;20048;-42
2022/04/09 01:16:46;;;;;;;1.60;1.00;;;1.60;99.90;;;1.97;77.35;96333.63;4927761;29;20074;-42
2022/04/09 01:19:15;;;;;;;1.80;1.37;;;1.60;99.90;;;2.07;77.32;96351.16;4929074;29;20052;-42
2022/04/09 01:21:43;;;;;;;2.10;1.50;;;1.70;99.90;;;2.22;77.48;96360.25;4928201;29;20258;-42
2022/04/09 01:24:11;;;;;;;2.37;1.60;;;1.90;99.90;;;2.37;77.29;96376.41;4927387;29;20060;-42
2022/04/09 01:26:47;;;;;;;2.37;1.80;;;2.10;99.90;;;2.45;77.02;96373.09;4913256;29;20047;-42
2022/04/09 01:29:27;;;;;;;3.20;2.20;;;2.20;99.90;;;2.44;77.01;96380.13;4925970;29;20058;-42
2022/04/09 01:31:55;;;;;;;2.63;1.80;;;2.10;99.90;;;2.38;76.39;96383.31;4926814;29;20384;-42
2022/04/09 01:34:23;;;;;;;4.50;2.30;;;2.00;99.90;;;2.44;76.41;96389.81;4927645;29;20062;-42
2022/04/09 01:36:51;;;;;;;2.73;1.60;;;2.10;99.90;;;2.39;76.39;96400.75;4927103;29;20256;-42
2022/04/09 01:39:19;;;;;;;3.33;2.10;;;2.00;99.90;;;2.38;76.59;96412.19;4927157;29;20087;-42
2022/04/09 01:41:47;;;;;;;2.73;1.83;;;2.00;99.90;;;2.29;75.95;96400.75;4927400;29;20059;-42
2022/04/09 01:44:15;;;;;;;4.40;1.97;;;1.90;99.90;;;2.24;75.87;96410.84;4927349;29;20058;-42
2022/04/09 01:46:44;;;;;;;2.30;1.70;;;1.80;99.90;;;2.32;76.00;96413.59;4929646;29;20051;-42
2022/04/09 01:49:15;;;;;;;1.97;1.37;;;1.90;99.90;;;2.36;76.03;96429.91;4929825;29;20052;-42
2022/04/09 01:51:47;;;;;;;3.57;1.83;;;2.00;99.90;;;2.08;75.85;96440.28;4931636;29;20229;-42
2022/04/09 01:54:15;;;;;;;3.70;1.80;;;1.70;99.90;;;1.96;76.14;96444.03;4931534;29;20064;-42
2022/04/09 01:56:43;;;;;;;2.53;1.90;;;1.60;99.90;;;1.97;76.07;96450.91;4931763;29;20372;-42
2022/04/09 01:59:11;;;;;;;3.17;2.23;;;1.60;99.90;;;2.06;76.41;96465.84;4930175;29;20056;-42
2022/04/09 02:01:39;;;;;;;1.93;1.20;;;1.60;99.90;;;1.85;76.49;96468.59;4930703;29;20258;-42
2022/04/09 02:04:07;;;;;;;2.47;1.63;;;1.50;99.90;;;1.94;76.19;96480.09;4932732;29;20317;-42
2022/04/09 02:06:35;;;;;;;4.07;1.93;;;1.50;99.90;;;1.77;76.47;96487.63;4929968;29;20065;-42
2022/04/09 02:09:04;;;;;;;3.40;2.20;;;1.40;99.90;;;1.85;77.04;96494.00;4932529;29;20054;-42
2022/04/09 02:11:33;;;;;;;4.03;2.13;;;1.50;99.90;;;1.93;77.26;96494.16;4929838;29;20058;-42
2022/04/09 02:14:01;;;;;;;3.13;2.07;;;1.50;99.90;;;1.85;76.79;96502.72;4929862;29;20051;-42
2022/04/09 02:16:29;;;;;;;2.93;2.17;;;1.50;99.90;;;1.85;76.70;96501.88;4929997;29;20253;-42
2022/04/09 02:18:57;;;;;;;3.83;2.70;;;1.50;99.90;;;1.82;77.25;96502.97;4914340;29;20059;-42
2022/04/09 02:21:25;;;;;;;3.67;2.70;;;1.50;99.90;;;1.98;76.88;96510.34;4930475;29;20486;-42
2022/04/09 02:23:53;;;;;;;4.60;2.53;;;1.60;99.90;;;1.84;77.53;96524.69;4933026;29;20062;-42
2022/04/09 02:26:21;;;;;;;3.67;2.33;;;1.60;99.90;;;1.68;76.82;96527.78;4930613;29;20353;-42
2022/04/09 02:28:49;;;;;;;3.70;2.67;;;1.40;99.90;;;1.68;77.48;96534.84;4914972;29;20060;-41
2022/04/09 02:31:22;;;;;;;2.93;2.03;;;1.40;99.90;;;1.38;77.95;96553.09;4914899;29;20349;-42
2022/04/09 02:33:51;;;;;;;3.47;2.37;;;1.20;99.90;;;1.59;78.08;96546.97;4929458;29;20051;-42
2022/04/09 02:36:19;;;;;;;3.40;2.13;;;1.30;99.90;;;1.66;77.95;96557.75;4931788;29;20070;-42
2022/04/09 02:38:47;;;;;;;2.97;2.23;;;1.30;99.90;;;1.69;77.33;96562.75;4928979;29;20070;-42
2022/04/09 02:41:16;;;;;;;3.27;2.17;;;1.30;99.90;;;1.60;78.06;96571.41;4930300;29;20066;-42
2022/04/09 02:43:46;;;;;;;3.00;2.20;;;1.40;99.90;;;1.82;77.41;96583.50;4930191;29;20055;-42
2022/04/09 02:46:15;;;;;;;3.63;2.30;;;1.50;99.90;;;1.71;77.68;96592.31;4928800;29;20063;-42
2022/04/09 02:48:45;;;;;;;5.43;2.37;;;1.50;99.90;;;1.67;77.67;96594.38;4929523;29;20136;-42
2022/04/09 02:51:17;;;;;;;2.90;1.97;;;1.40;99.90;;;1.51;77.83;96607.97;4929793;29;20069;-42
2022/04/09 02:53:46;;;;;;;3.47;2.17;;;1.30;99.90;;;1.66;78.08;96612.84;4931392;29;20073;-42
2022/04/09 02:56:14;;;;;;;3.00;2.10;;;1.40;99.90;;;1.46;78.70;96620.63;4912579;29;20047;-42
2022/04/09 02:58:42;;;;;;;4.43;2.70;;;1.30;99.90;;;1.63;78.18;96624.47;4928429;29;20346;-42
2022/04/09 03:01:11;;;;;;;2.60;2.00;;;1.40;99.90;;;1.72;78.23;96626.28;4930634;29;20070;-42
2022/04/09 03:03:39;;;;;;;2.30;1.60;;;1.50;99.90;;;1.72;78.01;96631.53;4931379;29;20051;-42
2022/04/09 03:06:07;;;;;;;1.87;1.50;;;1.50;99.90;;;1.64;78.49;96639.22;4931835;29;20059;-42
2022/04/09 03:08:39;;;;;;;2.23;1.80;;;1.50;99.90;;;1.52;78.87;96642.91;4930419;29;20066;-42
2022/04/09 03:11:08;;;;;;;3.10;2.00;;;1.50;99.90;;;1.73;77.72;96643.69;4913787;29;20056;-42
2022/04/09 03:13:36;;;;;;;4.10;2.67;;;1.50;99.90;;;1.70;78.49;96656.25;4929100;29;20261;-42
2022/04/09 03:16:06;;;;;;;4.80;2.83;;;1.50;99.90;;;1.66;78.05;96658.28;4931207;29;20365;-42
2022/04/09 03:18:34;;;;;;;3.83;2.50;;;1.50;99.90;;;1.67;77.93;96661.75;4931563;29;20060;-42
2022/04/09 03:21:02;;;;;;;4.40;2.70;;;1.50;99.90;;;1.56;78.64;96665.28;4928319;29;20153;-42
2022/04/09 03:23:33;;;;;;;4.10;2.60;;;1.50;99.90;;;1.49;78.58;96664.13;4928764;29;20074;-42
2022/04/09 03:26:01;;;;;;;5.33;3.63;;;1.40;99.90;;;1.57;78.70;96677.41;4928612;29;20051;-41
2022/04/09 03:28:38;;;;;;;6.63;3.77;;;1.50;99.90;;;1.65;78.88;96685.50;4928624;29;20314;-42
2022/04/09 03:31:10;;;;;;;7.40;4.07;;;1.60;99.90;;;1.77;78.55;96689.69;4928536;29;20068;-42
2022/04/09 03:33:39;;;;;;;7.13;3.63;;;1.70;99.90;;;1.70;78.08;96716.59;4929554;29;20063;-42
2022/04/09 03:36:13;;;;;;;8.30;5.05;;;1.60;99.90;;;1.85;78.22;96704.81;4930816;29;20060;-42
2022/04/09 03:38:42;;;;;;;8.43;4.80;;;1.70;99.90;;;1.74;78.50;96721.44;4929189;29;20056;-42
2022/04/09 03:41:11;;;;;;;8.07;4.47;;;1.70;99.90;;;1.65;78.47;96730.09;4928542;29;20056;-42
2022/04/09 03:44:00;;;;;;;7.93;5.23;;;1.60;99.90;;;1.52;79.06;96732.91;4928092;29;20063;-41
2022/04/09 03:46:32;;;;;;;8.53;5.07;;;1.50;99.90;;;1.47;79.45;96747.34;4929325;29;20058;-42
2022/04/09 03:49:04;;;;;;;7.90;5.33;;;1.50;99.90;;;1.63;78.73;96754.78;4927778;29;20052;-41
2022/04/09 03:51:35;;;;;;;7.80;5.27;;;1.60;99.90;;;1.76;78.27;96756.28;4929007;29;20348;-42
2022/04/09 03:54:04;;;;;;;5.20;3.57;;;1.70;99.90;;;1.60;78.30;96766.38;4927770;29;20055;-41
2022/04/09 03:56:33;;;;;;;7.93;5.17;;;1.60;99.90;;;1.66;78.60;96763.25;4927305;29;20440;-41
2022/04/09 03:59:02;;;;;;;6.13;4.57;;;1.60;99.90;;;1.63;78.16;96768.75;4927053;29;20162;-41
2022/04/09 04:01:30;;;;;;;7.63;4.90;;;1.60;99.90;;;1.67;77.71;96778.03;4928638;29;20254;-42
2022/04/09 04:04:03;;;;;;;8.57;5.67;;;1.60;99.90;;;1.71;77.71;96781.25;4927553;29;20063;-41
2022/04/09 04:06:31;;;;;;;10.33;5.27;;;1.70;99.90;;;1.63;78.54;96783.66;4928080;29;20463;-42
2022/04/09 04:09:03;;;;;;;7.03;5.30;;;1.60;99.90;;;1.49;78.82;96785.66;4927996;29;20337;-41
2022/04/09 04:11:33;;;;;;;9.07;5.63;;;1.50;99.90;;;1.54;78.86;96793.94;4927404;29;20187;-41
2022/04/09 04:14:03;;;;;;;6.93;4.77;;;1.60;99.90;;;1.61;78.10;96799.53;4928479;29;20052;-41
2022/04/09 04:16:31;;;;;;;13.93;6.80;;;1.60;99.90;;;1.63;78.62;96799.41;4929192;29;20106;-41
2022/04/09 04:18:59;;;;;;;8.17;6.43;;;1.60;99.90;;;1.61;78.08;96804.78;4927480;29;20063;-41
2022/04/09 04:21:28;;;;;;;10.43;6.07;;;1.60;99.90;;;1.48;78.33;96812.81;4913304;29;20071;-41
2022/04/09 04:24:02;;;;;;;12.33;6.40;;;1.50;99.90;;;1.69;78.36;96809.41;4927179;29;20063;-41
2022/04/09 04:26:30;;;;;;;9.27;6.17;;;1.60;99.90;;;1.75;78.31;96814.16;4928076;29;20059;-41
2022/04/09 04:29:04;;;;;;;8.65;4.90;;;1.60;99.90;;;1.60;77.75;96823.28;4927869;29;20057;-41
2022/04/09 04:31:33;;;;;;;11.83;7.43;;;1.50;99.90;;;1.57;78.10;96826.97;4912153;29;20069;-41
2022/04/09 04:34:03;;;;;;;11.27;6.53;;;1.50;99.90;;;1.63;78.58;96830.88;4927831;29;20051;-41
2022/04/09 04:36:36;;;;;;;11.73;6.70;;;1.50;99.90;;;1.58;77.65;96841.75;4928010;29;20235;-41
2022/04/09 04:39:04;;;;;;;14.27;8.13;;;1.50;99.90;;;1.75;77.23;96845.63;4929990;29;20110;-42
2022/04/09 04:41:33;;;;;;;12.87;6.90;;;1.50;99.90;;;1.80;77.72;96848.69;4927125;29;20372;-41
2022/04/09 04:44:02;;;;;;;8.50;6.20;;;1.60;99.90;;;1.61;77.28;96857.28;4927415;29;20567;-41
2022/04/09 04:46:39;;;;;;;10.13;6.37;;;1.50;99.90;;;1.69;77.35;96860.09;4927179;29;20056;-41
2022/04/09 04:49:09;;;;;;;8.97;5.90;;;1.50;99.90;;;1.60;77.49;96867.88;4927446;29;20249;-42
2022/04/09 04:51:38;;;;;;;9.70;7.07;;;1.40;99.90;;;1.69;77.45;96873.22;4912503;29;20062;-41
2022/04/09 04:54:07;;;;;;;10.50;6.27;;;1.60;99.90;;;1.55;77.64;96873.47;4927350;29;20062;-41
2022/04/09 04:56:36;;;;;;;11.60;7.50;;;1.50;99.90;;;1.64;76.79;96871.91;4926592;29;20054;-42
2022/04/09 04:59:07;;;;;;;9.90;6.73;;;1.50;99.90;;;1.66;77.48;96878.69;4927559;29;20082;-41
2022/04/09 05:01:37;;;;;;;13.40;9.37;;;1.50;99.90;;;1.77;76.81;96881.28;4927603;29;20066;-41
2022/04/09 05:04:07;;;;;;;14.60;9.03;;;1.50;99.90;;;1.62;76.98;96879.09;4927345;29;20069;-41
2022/04/09 05:06:36;;;;;;;16.70;9.83;;;1.50;99.90;;;1.82;76.74;96888.78;4929226;29;20047;-41
2022/04/09 05:09:06;;;;;;;13.43;9.10;;;1.50;99.90;;;1.66;76.94;96893.63;4925398;29;20081;-41
2022/04/09 05:11:43;;;;;;;10.70;7.27;;;1.50;99.90;;;1.74;77.03;96902.53;4912907;29;20063;-42
2022/04/09 05:14:16;;;;;;;10.90;7.45;;;1.50;99.90;;;1.70;76.94;96905.53;4927110;29;20066;-41
2022/04/09 05:16:49;;;;;;;14.32;8.52;;;1.50;99.90;;;1.63;76.72;96906.97;4928160;29;20055;-42
2022/04/09 05:19:17;;;;;;;13.90;7.83;;;1.50;99.90;;;1.67;76.98;96917.13;4930018;29;20052;-42
2022/04/09 05:21:51;;;;;;;13.35;7.78;;;1.50;99.90;;;1.66;76.92;96918.06;4933124;29;20055;-42
2022/04/09 05:24:21;;;;;;;13.60;7.57;;;1.50;99.90;;;1.51;77.23;96924.53;4933925;29;20420;-42
2022/04/09 05:26:49;;;;;;;15.30;8.20;;;1.40;99.90;;;1.43;77.39;96929.56;4933554;29;20067;-41
2022/04/09 05:29:20;;;;;;;11.27;7.87;;;1.40;99.90;;;1.35;77.63;96941.47;4932901;29;20341;-42
2022/04/09 05:31:50;;;;;;;11.43;6.63;;;1.30;99.90;;;1.20;77.77;96940.06;4933583;29;20420;-41
2022/04/09 05:34:19;;;;;;;15.60;8.70;;;1.30;99.90;;;1.30;77.78;96948.03;4916950;29;20375;-41
2022/04/09 05:36:48;;;;;;;14.17;8.17;;;1.30;99.90;;;1.26;77.70;96962.34;4934303;29;20055;-41
2022/04/09 05:39:17;;;;;;;13.93;7.37;;;1.30;99.90;;;1.28;78.38;96970.94;4935626;29;20083;-41
2022/04/09 05:41:46;;;;;;;17.23;9.03;;;1.30;99.90;;;1.27;77.89;96972.72;4917560;29;20059;-41
2022/04/09 05:44:15;;;;;;;11.23;7.37;;;1.40;99.90;;;1.26;78.02;96964.97;4932589;29;20403;-41
2022/04/09 05:46:44;;;;;;;11.20;6.77;;;1.30;99.90;;;1.24;78.39;96980.84;4934111;29;20067;-42
2022/04/09 05:49:11;;;;;;;11.87;7.47;;;1.40;99.90;;;1.22;78.20;96972.25;4932712;29;20070;-42
2022/04/09 05:51:42;;;;;;;16.20;8.57;;;1.30;99.90;;;1.35;77.96;96980.00;4933828;29;20048;-41
2022/04/09 05:54:11;;;;;;;13.70;7.03;;;1.40;99.90;;;1.31;78.54;96989.91;4932960;29;20060;-41
2022/04/09 05:56:42;;;;;;;12.20;8.23;;;1.40;99.90;;;1.35;78.00;96990.50;4933382;29;20057;-41
2022/04/09 05:59:11;;;;;;;12.17;7.70;;;1.40;99.90;;;1.28;78.72;96986.66;4936507;29;20375;-42
2022/04/09 06:01:49;;;;;;;12.80;8.17;;;1.40;99.90;;;1.36;78.05;96992.19;4933718;29;20074;-41
2022/04/09 06:04:21;;;;;;;11.87;7.33;;;1.40;99.90;;;1.43;77.68;96998.59;4933337;29;20051;-41
2022/04/09 06:06:55;;;;;;;8.50;5.33;;;1.50;99.90;;;1.33;77.81;97014.22;4933499;29;20252;-42
2022/04/09 06:09:25;;;;;;;10.40;6.63;;;1.50;99.90;;;1.42;77.69;97028.41;4932385;29;20054;-41
2022/04/09 06:12:06;;;;;;;7.87;5.47;;;1.50;99.90;;;1.27;78.46;97025.19;4933681;29;20056;-43
2022/04/09 06:14:48;;;;;;;8.97;6.13;;;1.50;99.90;;;1.42;77.84;97030.22;4932643;29;20497;-43
2022/04/09 06:17:15;;;;;;;9.73;6.93;;;1.50;99.90;;;1.47;78.36;97034.13;4934408;29;20063;-43
2022/04/09 06:19:44;;;;;;;11.67;6.87;;;1.60;99.90;;;1.56;77.87;97033.41;4933013;29;20375;-41
2022/04/09 06:22:13;;;;;;;11.87;7.33;;;1.60;99.90;;;1.49;77.82;97040.09;4917027;29;20058;-42
2022/04/09 06:24:41;;;;;;;8.87;6.60;;;1.60;99.90;;;1.51;78.06;97051.31;4935029;29;20051;-42
2022/04/09 06:27:11;;;;;;;13.77;7.77;;;1.60;99.90;;;1.76;77.56;97059.88;4934427;29;20051;-41
2022/04/09 06:29:39;;;;;;;13.73;7.07;;;1.80;99.90;;;1.84;77.38;97062.75;4931444;29;20210;-42
2022/04/09 06:32:08;;;;;;;10.53;4.80;;;1.80;99.90;;;1.62;76.94;97068.81;4930048;29;20365;-41
2022/04/09 06:34:36;;;;;;;12.87;7.37;;;1.70;99.90;;;1.75;77.12;97064.28;4930062;29;20059;-42
2022/04/09 06:37:09;;;;;;;10.98;6.68;;;1.80;99.90;;;1.75;77.56;97071.34;4929469;29;20463;-42
2022/04/09 06:39:38;;;;;;;16.43;8.43;;;1.80;99.90;;;1.87;77.13;97077.41;4929767;29;20070;-42
2022/04/09 06:42:07;;;;;;;11.33;7.33;;;1.90;99.90;;;1.82;77.38;97072.50;4930157;29;20056;-41
2022/04/09 06:45:09;;;;;;;10.23;7.60;;;1.90;99.90;;;1.85;76.80;97072.28;4929470;29;20063;-41
2022/04/09 06:47:56;;;;;;;12.43;7.17;;;1.90;99.90;;;1.94;76.76;97084.69;4931407;29;20054;-41
2022/04/09 06:50:24;;;;;;;11.27;7.63;;;1.90;99.90;;;1.93;77.12;97076.94;4929485;29;20059;-41
2022/04/09 06:52:52;;;;;;;12.50;7.30;;;1.90;99.90;;;1.97;76.56;97081.81;4929298;29;20055;-41
2022/04/09 06:55:30;;;;;;;10.37;7.67;;;1.90;99.90;;;2.03;76.50;97087.53;4929094;29;20273;-41
2022/04/09 06:58:02;;;;;;;11.23;7.17;;;2.00;99.90;;;2.03;76.50;97093.63;4929470;29;20058;-41
2022/04/09 07:00:39;;;;;;;13.83;8.30;;;2.00;99.90;;;2.06;76.47;97095.19;4915491;29;20056;-41
2022/04/09 07:03:08;;;;;;;13.20;7.10;;;2.10;99.90;;;1.97;76.31;97102.81;4913738;29;20067;-41
2022/04/09 07:05:36;;;;;;;12.43;7.73;;;2.00;99.90;;;1.98;76.99;97095.78;4930377;29;20071;-41
2022/04/09 07:08:07;;;;;;;9.57;6.27;;;2.00;99.90;;;2.00;76.40;97107.00;4929168;29;20065;-41
2022/04/09 07:10:39;;;;;;;10.27;6.70;;;2.10;99.90;;;2.10;76.68;97113.19;4931748;29;20350;-41
2022/04/09 07:13:07;;;;;;;11.60;6.37;;;2.10;99.90;;;2.05;76.96;97110.09;4930932;29;20344;-41
2022/04/09 07:15:35;;;;;;;11.37;7.03;;;2.10;99.90;;;2.14;76.70;97114.63;4930734;29;20055;-41
2022/04/09 07:18:03;;;;;;;9.80;6.90;;;2.20;99.90;;;2.10;76.76;97118.44;4931909;29;20056;-41
2022/04/09 07:20:35;;;;;;;9.40;6.03;;;2.20;99.90;;;2.25;76.53;97126.03;4930921;29;20592;-41
2022/04/09 07:23:04;;;;;;;9.33;5.93;;;2.30;99.90;;;2.27;76.30;97134.63;4929548;29;20066;-41
2022/04/09 07:25:32;;;;;;;13.37;6.90;;;2.30;99.90;;;2.34;75.92;97136.66;4931335;29;20055;-41
2022/04/09 07:28:00;;;;;;;12.13;7.07;;;2.40;99.90;;;2.38;76.45;97141.69;4931481;29;20063;-41
2022/04/09 07:30:29;;;;;;;9.67;5.63;;;2.40;99.90;;;2.43;75.74;97144.78;4929073;29;20349;-41
2022/04/09 07:32:57;;;;;;;12.20;5.77;;;2.50;99.90;;;2.33;75.57;97150.75;4930997;29;20052;-41
2022/04/09 07:35:26;;;;;;;10.50;5.40;;;2.40;99.90;;;2.43;75.56;97148.25;4930158;29;20340;-41
2022/04/09 07:37:56;;;;;;;15.23;7.07;;;2.50;99.90;;;2.54;75.27;97156.09;4931110;29;20250;-41
2022/04/09 07:40:25;;;;;;;8.93;6.23;;;2.50;99.90;;;2.70;75.52;97160.97;4930680;29;20070;-41
2022/04/09 07:42:54;;;;;;;8.87;5.50;;;2.70;99.90;;;2.68;74.85;97167.31;4930140;29;20383;-41
2022/04/09 07:45:21;;;;;;;10.43;6.83;;;2.70;99.90;;;2.73;75.65;97167.75;4930618;29;20063;-41
2022/04/09 07:47:59;;;;;;;6.20;4.43;;;2.70;99.90;;;2.64;74.62;97171.16;4932593;29;20421;-41
2022/04/09 07:50:28;;;;;;;9.03;5.90;;;2.70;99.90;;;2.72;74.78;97181.88;4930727;29;20223;-41
2022/04/09 07:52:56;;;;;;;9.10;6.20;;;2.70;99.90;;;2.84;75.19;97185.31;4930779;29;20081;-41
2022/04/09 07:55:24;;;;;;;9.20;5.97;;;2.80;99.90;;;2.79;74.84;97187.44;4930919;29;20060;-41
2022/04/09 07:57:54;;;;;;;10.43;5.50;;;2.80;99.90;;;2.78;74.58;97198.94;4933310;29;20055;-41
2022/04/09 08:00:24;;;;;;;11.27;5.97;;;2.80;99.90;;;2.92;74.92;97206.53;4937130;29;20055;-41
2022/04/09 08:02:52;;;;;;;11.13;6.57;;;3.00;99.90;;;2.90;74.99;97204.03;4936108;29;20061;-41
2022/04/09 08:05:20;;;;;;;9.33;6.53;;;3.00;99.90;;;2.92;75.08;97209.16;4939964;29;20268;-41
2022/04/09 08:07:48;;;;;;;9.13;6.90;;;3.00;99.90;;;3.17;75.00;97212.44;4944002;29;20268;-41
2022/04/09 08:10:16;;;;;;;10.03;5.97;;;3.30;99.90;;;3.10;74.17;97218.22;4951581;28;20055;-41
2022/04/09 08:12:48;;;;;;;7.53;4.67;;;3.30;99.90;;;2.92;74.07;97225.78;4969991;28;20051;-41
2022/04/09 08:15:18;;;;;;;9.97;6.80;;;3.10;99.90;;;3.11;74.50;97226.94;4973457;28;20050;-41
2022/04/09 08:17:49;;;;;;;15.57;7.67;;;3.10;99.90;;;3.32;74.47;97232.25;4961578;28;20051;-41
2022/04/09 08:20:21;;;;;;;10.80;6.63;;;3.30;99.90;;;3.39;73.84;97249.16;4957890;28;20058;-41
2022/04/09 08:22:50;;;;;;;9.10;6.27;;;3.50;99.90;;;3.30;73.88;97237.63;4957121;28;20071;-41
2022/04/09 08:25:18;;;;;;;8.53;5.93;;;3.40;99.90;;;3.37;73.73;97255.53;4950232;28;20062;-41
2022/04/09 08:27:49;;;;;;;10.60;7.27;;;3.40;99.90;;;3.39;73.75;97245.72;4932333;29;20085;-41
2022/04/09 08:30:18;;;;;;;12.73;5.07;;;3.40;99.90;;;3.15;72.77;97259.91;4930768;29;20050;-41
2022/04/09 08:32:46;;;;;;;13.90;6.40;;;3.20;99.90;;;3.27;73.29;97252.81;4930857;29;20055;-41
2022/04/09 08:35:14;;;;;;;11.93;6.23;;;3.30;99.90;;;3.35;73.43;97259.13;4930178;29;20055;-41
2022/04/09 08:37:42;;;;;;;11.80;6.20;;;3.40;99.90;;;3.62;73.47;97256.97;4929156;29;20055;-41
2022/04/09 08:40:14;;;;;;;11.03;7.93;;;3.60;99.90;;;3.68;73.19;97261.72;4929900;29;20075;-41
2022/04/09 08:42:43;;;;;;;12.83;7.63;;;3.60;99.90;;;3.87;73.65;97258.41;4930196;29;20061;-41
2022/04/09 08:45:10;;;;;;;11.47;7.07;;;3.80;99.90;;;3.95;73.06;97263.84;4928881;29;20059;-41
2022/04/09 08:47:41;;;;;;;13.13;7.63;;;4.00;99.90;;;4.17;73.74;97264.66;4930230;29;20244;-41
2022/04/09 08:50:14;;;;;;;9.73;6.30;;;4.20;99.90;;;4.10;72.38;97270.47;4928499;29;20067;-41
2022/04/09 08:52:44;;;;;;;10.65;6.35;;;4.10;99.90;;;3.77;71.75;97268.88;4930804;29;20055;-41
2022/04/09 08:55:14;;;;;;;12.23;7.17;;;3.80;99.90;;;3.81;71.75;97264.19;4928927;29;20047;-41
2022/04/09 08:57:43;;;;;;;10.93;7.60;;;3.80;99.90;;;3.77;72.22;97268.88;4930083;29;20048;-41
2022/04/09 09:00:14;;;;;;;12.33;5.97;;;3.80;99.90;;;3.93;72.77;97263.97;4927067;29;20070;-41
2022/04/09 09:02:57;;;;;;;12.10;6.47;;;3.80;99.90;;;4.12;72.43;97263.25;4927263;29;20070;-42
2022/04/09 09:05:37;;;;;;;7.32;5.18;;;4.00;99.90;;;3.95;71.91;97261.22;4928776;29;20059;-41
2022/04/09 09:08:07;;;;;;;10.60;5.70;;;3.90;99.90;;;4.14;72.45;97266.59;4927928;29;20056;-41
2022/04/09 09:10:37;;;;;;;11.73;5.77;;;4.00;99.90;;;4.27;71.99;97268.22;4928612;29;20243;-41
2022/04/09 09:13:12;;;;;;;9.87;5.63;;;4.20;99.90;;;4.13;70.34;97267.59;4929866;29;20056;-41
2022/04/09 09:15:53;;;;;;;10.00;5.90;;;4.20;99.90;;;4.35;70.91;97278.94;4930610;29;20055;-45
2022/04/09 09:18:26;;;;;;;7.03;3.80;;;4.30;99.90;;;3.94;68.96;97289.38;4928355;29;20060;-48
2022/04/09 09:20:55;;;;;;;11.03;6.33;;;4.10;99.90;;;4.19;70.37;97291.72;4926778;29;20060;-47
2022/04/09 09:23:31;;;;;;;13.93;5.97;;;4.10;99.90;;;4.32;71.11;97292.34;4929440;29;20052;-48
2022/04/09 09:26:01;;;;;;;11.27;5.20;;;4.20;99.90;;;4.40;70.08;97300.47;4929439;29;20058;-46
2022/04/09 09:28:32;;;;;;;10.53;5.93;;;4.40;99.90;;;4.39;71.13;97295.31;4927538;29;20060;-46
2022/04/09 09:31:01;;;;;;;8.20;5.83;;;4.30;99.90;;;4.41;69.39;97298.66;4929178;29;20368;-48
2022/04/09 09:33:29;;;;;;;7.93;5.00;;;4.40;99.90;;;4.51;70.31;97294.25;4929501;29;20055;-47
2022/04/09 09:36:32;;;;;;;9.50;5.23;;;4.50;99.90;;;4.73;70.70;97296.72;4930955;29;20779;-49
2022/04/09 09:39:05;;;;;;;11.20;5.27;;;4.70;99.90;;;4.77;69.81;97299.94;4928915;29;20345;-48
2022/04/09 09:41:34;;;;;;;6.63;4.82;;;4.80;99.90;;;4.54;68.20;97310.66;4927357;29;20064;-48
2022/04/09 09:44:06;;;;;;;12.50;5.70;;;4.60;99.90;;;4.63;68.30;97303.75;4928992;29;20043;-50
2022/04/09 09:46:35;;;;;;;10.40;5.33;;;4.60;99.90;;;4.71;68.78;97305.72;4930079;29;20055;-46
2022/04/09 09:49:03;;;;;;;6.30;4.70;;;4.70;99.90;;;4.69;68.98;97302.38;4928164;29;20066;-48
2022/04/09 09:51:31;;;;;;;9.33;4.87;;;4.60;99.90;;;4.71;68.46;97303.94;4928634;29;20048;-50
2022/04/09 09:54:11;;;;;;;8.60;6.10;;;4.70;99.90;;;4.87;68.55;97302.59;4928868;29;20054;-47
2022/04/09 09:56:45;;;;;;;18.27;8.63;;;4.80;99.90;;;4.87;68.33;97305.25;4929647;29;20360;-50
2022/04/09 09:59:14;;;;;;;13.47;7.57;;;4.90;99.90;;;5.00;67.73;97302.34;4926700;29;20063;-50
2022/04/09 10:01:47;;;;;;;11.43;5.87;;;5.00;99.90;;;5.16;69.27;97310.59;4928698;29;20211;-47
2022/04/09 10:04:15;;;;;;;10.90;5.03;;;5.10;99.90;;;5.26;69.19;97313.25;4928093;29;20257;-46
2022/04/09 10:06:43;;;;;;;10.20;4.80;;;5.30;99.90;;;5.38;68.38;97314.78;4934198;28;20381;-47
2022/04/09 10:09:16;;;;;;;9.37;4.20;;;5.40;99.90;;;5.47;67.99;97318.44;4959628;28;20049;-48
2022/04/09 10:11:53;;;;;;;6.77;4.57;;;5.50;99.90;;;5.55;67.71;97313.28;4978187;28;20354;-49
2022/04/09 10:14:26;;;;;;;9.23;4.23;;;5.60;99.90;;;5.58;67.59;97320.09;4975135;28;20051;-48
2022/04/09 10:16:55;;;;;;;5.47;3.13;;;5.60;99.90;;;5.27;65.11;97317.56;4964307;28;20355;-47
2022/04/09 10:19:25;;;;;;;12.50;4.27;;;5.40;99.90;;;5.28;66.24;97321.88;4962806;28;20047;-49
2022/04/09 10:21:53;;;;;;;7.27;4.63;;;5.30;99.90;;;5.24;65.41;97317.84;4963199;28;20066;-49
2022/04/09 10:24:26;;;;;;;10.77;4.60;;;5.30;99.90;;;5.21;66.95;97323.38;4961654;28;20061;-48
2022/04/09 10:26:56;;;;;;;7.23;4.67;;;5.30;99.90;;;5.40;67.54;97327.88;4958941;28;20062;-50
2022/04/09 10:29:24;;;;;;;10.00;4.53;;;5.40;99.90;;;5.48;66.64;97320.09;4974969;28;20115;-48
2022/04/09 10:31:52;;;;;;;9.90;4.50;;;5.60;99.90;;;5.57;66.45;97321.91;4959788;29;20257;-48
2022/04/09 10:34:20;;;;;;;10.53;4.67;;;5.70;99.90;;;5.55;64.21;97342.34;4960698;29;20344;-47
2022/04/09 10:36:48;;;;;;;9.27;4.47;;;5.70;99.90;;;5.47;65.19;97329.00;4954921;29;20073;-46
2022/04/09 10:39:36;;;;;;;6.37;4.47;;;5.60;99.90;;;5.36;64.99;97337.03;4952225;29;20051;-46
2022/04/09 10:42:04;;;;;;;9.30;4.97;;;5.50;99.90;;;5.47;65.13;97326.34;4949655;29;20067;-49
2022/04/09 10:44:44;;;;;;;5.93;3.93;;;5.60;99.90;;;5.61;66.14;97328.59;4951081;28;20091;-52